createdAt,value
2023-02-04T00:00:37.317Z,6.10
2023-02-04T00:03:05.932Z,6.10
2023-02-04T00:05:33.960Z,6.10
2023-02-04T00:08:01.849Z,6.10
2023-02-04T00:10:31.305Z,6.10
2023-02-04T00:12:59.264Z,6.10
2023-02-04T00:15:27.187Z,6.10
2023-02-04T00:17:54.960Z,6.10
2023-02-04T00:20:23.122Z,6.10
2023-02-04T00:22:51.612Z,6.10
2023-02-04T00:25:19.410Z,6.10
2023-02-04T00:27:48.504Z,6.10
2023-02-04T00:30:16.355Z,6.10
2023-02-04T00:32:44.188Z,6.10
2023-02-04T00:35:11.962Z,6.10
2023-02-04T00:37:39.751Z,6.10
2023-02-04T00:40:08.478Z,6.10
2023-02-04T00:42:36.275Z,6.00
2023-02-04T00:45:05.902Z,6.00
2023-02-04T00:47:33.853Z,6.00
2023-02-04T00:50:01.678Z,6.00
2023-02-04T00:52:29.511Z,6.00
2023-02-04T00:54:57.335Z,6.00
2023-02-04T00:57:25.098Z,6.00
2023-02-04T00:59:52.871Z,6.00
2023-02-04T01:02:21.983Z,6.00
2023-02-04T01:04:49.781Z,6.00
2023-02-04T01:07:17.760Z,5.90
2023-02-04T01:09:45.525Z,5.90
2023-02-04T01:12:13.306Z,5.90
2023-02-04T01:14:41.162Z,5.90
2023-02-04T01:17:09.104Z,5.90
2023-02-04T01:19:38.220Z,5.90
2023-02-04T01:22:05.959Z,5.90
2023-02-04T01:24:33.687Z,5.80
2023-02-04T01:27:01.529Z,5.80
2023-02-04T01:29:29.287Z,5.80
2023-02-04T01:31:57.081Z,5.80
2023-02-04T01:34:25.902Z,5.80
2023-02-04T01:36:55.125Z,5.80
2023-02-04T01:39:22.898Z,5.80
2023-02-04T01:41:50.878Z,5.80
2023-02-04T01:44:18.682Z,5.80
2023-02-04T01:46:46.513Z,5.80
2023-02-04T01:49:14.302Z,5.90
2023-02-04T01:51:42.096Z,5.80
2023-02-04T01:54:14.695Z,5.80
2023-02-04T01:56:46.214Z,5.80
2023-02-04T01:59:15.368Z,5.90
2023-02-04T02:01:45.090Z,5.80
2023-02-04T02:04:15.541Z,5.80
2023-02-04T02:06:48.054Z,5.80
2023-02-04T02:09:17.799Z,5.80
2023-02-04T02:11:45.855Z,5.80
2023-02-04T02:14:14.250Z,5.80
2023-02-04T02:16:42.322Z,5.80
2023-02-04T02:19:16.010Z,5.70
2023-02-04T02:21:56.136Z,5.70
2023-02-04T02:24:29.714Z,5.70
2023-02-04T02:27:00.871Z,5.70
2023-02-04T02:29:29.051Z,5.70
2023-02-04T02:32:10.520Z,5.70
2023-02-04T02:34:40.282Z,5.60
2023-02-04T02:37:09.843Z,5.60
2023-02-04T02:39:40.606Z,5.60
2023-02-04T02:42:08.986Z,5.60
2023-02-04T02:44:36.901Z,5.60
2023-02-04T02:47:04.891Z,5.60
2023-02-04T02:49:34.864Z,5.60
2023-02-04T02:52:02.710Z,5.60
2023-02-04T02:54:32.532Z,5.60
2023-02-04T02:57:01.846Z,5.60
2023-02-04T02:59:29.747Z,5.60
2023-02-04T03:02:01.240Z,5.60
2023-02-04T03:04:30.996Z,5.60
2023-02-04T03:06:59.199Z,5.60
2023-02-04T03:09:28.795Z,5.60
2023-02-04T03:11:56.882Z,5.60
2023-02-04T03:14:27.074Z,5.60
2023-02-04T03:16:56.483Z,5.50
2023-02-04T03:19:25.340Z,5.50
2023-02-04T03:21:53.627Z,5.50
2023-02-04T03:24:21.614Z,5.50
2023-02-04T03:26:49.510Z,5.50
2023-02-04T03:29:17.655Z,5.50
2023-02-04T03:31:46.916Z,5.40
2023-02-04T03:34:15.242Z,5.40
2023-02-04T03:36:43.118Z,5.40
2023-02-04T03:39:11.015Z,5.40
2023-02-04T03:41:38.868Z,5.50
2023-02-04T03:44:06.758Z,5.50
2023-02-04T03:46:34.695Z,5.40
2023-02-04T03:49:04.022Z,5.40
2023-02-04T03:51:31.939Z,5.40
2023-02-04T03:53:59.789Z,5.30
2023-02-04T03:56:27.667Z,5.30
2023-02-04T03:58:55.541Z,5.30
2023-02-04T04:01:23.481Z,5.30
2023-02-04T04:03:51.452Z,5.30
2023-02-04T04:06:20.687Z,5.30
2023-02-04T04:08:48.587Z,5.30
2023-02-04T04:11:16.679Z,5.20
2023-02-04T04:13:44.542Z,5.20
2023-02-04T04:16:12.445Z,5.20
2023-02-04T04:18:40.331Z,5.20
2023-02-04T04:21:08.202Z,5.20
2023-02-04T04:23:37.552Z,5.20
2023-02-04T04:26:05.814Z,5.20
2023-02-04T04:28:33.671Z,5.20
2023-02-04T04:31:01.643Z,5.20
2023-02-04T04:33:29.634Z,5.20
2023-02-04T04:35:57.486Z,5.20
2023-02-04T04:38:25.349Z,5.20
2023-02-04T04:40:54.549Z,5.20
2023-02-04T04:43:22.398Z,5.10
2023-02-04T04:45:50.291Z,5.10
2023-02-04T04:48:18.251Z,5.10
2023-02-04T04:50:46.148Z,5.10
2023-02-04T04:53:14.001Z,5.10
2023-02-04T04:55:42.247Z,5.10
2023-02-04T04:58:11.492Z,5.10
2023-02-04T05:00:39.403Z,5.10
2023-02-04T05:03:07.600Z,5.10
2023-02-04T05:05:39.834Z,5.10
2023-02-04T05:08:10.852Z,5.10
2023-02-04T05:10:38.745Z,5.10
2023-02-04T05:13:06.655Z,5.00
2023-02-04T05:15:36.032Z,5.10
2023-02-04T05:18:04.002Z,5.00
2023-02-04T05:20:32.377Z,5.00
2023-02-04T05:23:01.040Z,5.00
2023-02-04T05:25:29.722Z,5.00
2023-02-04T05:27:57.654Z,5.00
2023-02-04T05:30:25.637Z,5.00
2023-02-04T05:32:54.886Z,5.00
2023-02-04T05:35:22.744Z,5.00
2023-02-04T05:37:50.603Z,5.00
2023-02-04T05:40:18.862Z,5.00
2023-02-04T05:42:46.720Z,4.90
2023-02-04T05:45:16.842Z,4.90
2023-02-04T05:47:44.714Z,4.90
2023-02-04T05:50:14.511Z,4.90
2023-02-04T05:52:42.529Z,4.80
2023-02-04T05:55:12.371Z,4.80
2023-02-04T05:57:40.313Z,4.80
2023-02-04T06:00:10.419Z,4.80
2023-02-04T06:02:38.291Z,4.60
2023-02-04T06:05:06.913Z,4.50
2023-02-04T06:07:36.151Z,4.40
2023-02-04T06:10:04.066Z,4.30
2023-02-04T06:12:31.910Z,4.20
2023-02-04T06:14:59.789Z,4.20
2023-02-04T06:17:27.665Z,4.10
2023-02-04T06:19:55.667Z,4.00
2023-02-04T06:22:24.548Z,3.90
2023-02-04T06:24:53.782Z,3.80
2023-02-04T06:27:23.327Z,3.70
2023-02-04T06:29:51.402Z,3.60
2023-02-04T06:32:19.648Z,3.50
2023-02-04T06:34:47.660Z,3.40
2023-02-04T06:37:17.017Z,3.40
2023-02-04T06:39:45.365Z,3.40
2023-02-04T06:42:14.563Z,3.40
2023-02-04T06:44:42.408Z,3.40
2023-02-04T06:47:10.268Z,3.50
2023-02-04T06:49:38.164Z,3.50
2023-02-04T06:52:06.603Z,3.50
2023-02-04T06:54:34.485Z,3.50
2023-02-04T06:57:06.652Z,3.60
2023-02-04T06:59:36.604Z,3.60
2023-02-04T07:02:05.819Z,3.60
2023-02-04T07:04:33.949Z,3.60
2023-02-04T07:07:01.806Z,3.70
2023-02-04T07:09:29.845Z,3.80
2023-02-04T07:11:57.786Z,3.80
2023-02-04T07:14:25.745Z,3.80
2023-02-04T07:16:54.978Z,3.80
2023-02-04T07:19:22.887Z,3.90
2023-02-04T07:21:53.884Z,3.90
2023-02-04T07:24:22.017Z,3.90
2023-02-04T07:26:50.358Z,3.90
2023-02-04T07:29:25.135Z,3.90
2023-02-04T07:31:55.165Z,3.80
2023-02-04T07:34:23.445Z,3.90
2023-02-04T07:36:51.505Z,3.80
2023-02-04T07:39:19.446Z,3.90
2023-02-04T07:41:47.339Z,3.90
2023-02-04T07:44:15.293Z,4.00
2023-02-04T07:46:43.296Z,4.00
2023-02-04T07:49:12.558Z,4.10
2023-02-04T07:51:40.431Z,4.20
2023-02-04T07:54:08.312Z,4.30
2023-02-04T07:56:36.175Z,4.50
2023-02-04T07:59:04.035Z,4.50
2023-02-04T08:01:31.967Z,4.50
2023-02-04T08:03:59.881Z,4.50
2023-02-04T08:06:29.178Z,4.50
2023-02-04T08:08:57.022Z,4.50
2023-02-04T08:11:26.929Z,4.60
2023-02-04T08:13:54.833Z,4.80
2023-02-04T08:16:22.795Z,5.10
2023-02-04T08:18:50.734Z,5.40
2023-02-04T08:21:19.549Z,5.70
2023-02-04T08:23:48.872Z,6.00
2023-02-04T08:26:16.753Z,6.20
2023-02-04T08:28:44.646Z,6.40
2023-02-04T08:31:12.643Z,6.50
2023-02-04T08:33:40.728Z,6.70
2023-02-04T08:36:09.501Z,7.20
2023-02-04T08:38:37.398Z,8.80
2023-02-04T08:41:07.037Z,10.60
2023-02-04T08:43:34.957Z,11.80
2023-02-04T08:46:02.835Z,12.90
2023-02-04T08:48:30.721Z,13.20
2023-02-04T08:50:58.595Z,12.80
2023-02-04T08:53:26.471Z,12.90
2023-02-04T08:55:54.455Z,13.80
2023-02-04T08:58:23.762Z,15.10
2023-02-04T09:00:51.751Z,14.40
2023-02-04T09:03:19.623Z,13.20
2023-02-04T09:05:47.534Z,11.90
2023-02-04T09:08:15.697Z,10.70
2023-02-04T09:10:43.663Z,10.10
2023-02-04T09:13:12.027Z,9.60
2023-02-04T09:15:41.240Z,9.10
2023-02-04T09:18:16.251Z,9.00
2023-02-04T09:20:44.380Z,9.50
2023-02-04T09:23:12.955Z,10.90
2023-02-04T09:25:41.320Z,11.10
2023-02-04T09:28:11.413Z,10.90
2023-02-04T09:30:41.393Z,11.10
2023-02-04T09:33:11.317Z,10.90
2023-02-04T09:35:39.443Z,9.90
2023-02-04T09:38:07.612Z,9.20
2023-02-04T09:40:38.748Z,8.50
2023-02-04T09:43:07.699Z,7.90
2023-02-04T09:45:36.973Z,7.40
2023-02-04T09:48:10.029Z,6.90
2023-02-04T09:50:38.294Z,6.50
2023-02-04T09:53:08.110Z,6.10
2023-02-04T09:55:39.441Z,5.80
2023-02-04T09:58:16.103Z,5.60
2023-02-04T10:00:45.258Z,5.60
2023-02-04T10:03:17.802Z,5.50
2023-02-04T10:05:47.060Z,5.40
2023-02-04T10:08:16.944Z,5.40
2023-02-04T10:10:46.404Z,5.40
2023-02-04T10:13:19.038Z,5.30
2023-02-04T10:15:47.996Z,5.40
2023-02-04T10:18:26.451Z,5.30
2023-02-04T10:20:58.522Z,5.20
2023-02-04T10:23:26.476Z,5.30
2023-02-04T10:25:54.331Z,5.20
2023-02-04T10:28:22.422Z,5.30
2023-02-04T10:30:50.467Z,5.40
2023-02-04T10:33:25.227Z,5.50
2023-02-04T10:35:54.703Z,5.50
2023-02-04T10:38:23.175Z,5.60
2023-02-04T10:41:02.161Z,5.50
2023-02-04T10:43:30.121Z,5.60
2023-02-04T10:46:00.512Z,5.60
2023-02-04T10:48:30.973Z,5.70
2023-02-04T10:50:59.517Z,5.80
2023-02-04T10:53:45.590Z,6.20
2023-02-04T10:56:17.224Z,7.30
2023-02-04T10:58:45.753Z,7.60
2023-02-04T11:01:15.269Z,7.20
2023-02-04T11:03:47.987Z,6.80
2023-02-04T11:06:21.293Z,6.50
2023-02-04T11:08:51.402Z,6.30
2023-02-04T11:11:21.782Z,6.10
2023-02-04T11:14:01.984Z,6.00
2023-02-04T11:16:32.783Z,5.70
2023-02-04T11:19:04.339Z,5.60
2023-02-04T11:21:44.539Z,5.40
2023-02-04T11:24:26.167Z,5.30
2023-02-04T11:27:06.319Z,5.20
2023-02-04T11:29:37.972Z,5.10
2023-02-04T11:32:08.026Z,5.00
2023-02-04T11:34:52.954Z,4.90
2023-02-04T11:37:36.940Z,4.90
2023-02-04T11:40:23.327Z,4.80
2023-02-04T11:42:56.807Z,4.80
2023-02-04T11:45:27.840Z,4.90
2023-02-04T11:47:58.836Z,4.80
2023-02-04T11:50:31.347Z,4.80
2023-02-04T11:53:01.812Z,4.80
2023-02-04T11:55:30.804Z,4.80
2023-02-04T11:57:59.326Z,4.80
2023-02-04T12:00:30.426Z,4.80
2023-02-04T12:03:00.172Z,4.90
2023-02-04T12:05:41.729Z,4.90
2023-02-04T12:08:14.457Z,5.00
2023-02-04T12:10:50.101Z,5.20
2023-02-04T12:13:20.471Z,6.60
2023-02-04T12:15:58.922Z,10.20
2023-02-04T12:18:27.732Z,14.30
2023-02-04T12:20:57.804Z,17.40
2023-02-04T12:23:26.738Z,17.60
2023-02-04T12:25:54.611Z,16.20
2023-02-04T12:28:22.819Z,14.50
2023-02-04T12:30:51.031Z,12.70
2023-02-04T12:33:18.971Z,11.20
2023-02-04T12:35:47.162Z,9.90
2023-02-04T12:38:16.578Z,9.00
2023-02-04T12:40:44.558Z,8.30
2023-02-04T12:43:12.500Z,7.70
2023-02-04T12:45:45.431Z,7.30
2023-02-04T12:48:13.755Z,7.00
2023-02-04T12:50:42.255Z,6.80
2023-02-04T12:53:10.167Z,6.50
2023-02-04T12:55:39.432Z,6.30
2023-02-04T12:58:07.308Z,6.20
2023-02-04T13:00:35.192Z,6.10
2023-02-04T13:03:03.338Z,5.90
2023-02-04T13:05:31.607Z,5.80
2023-02-04T13:07:59.605Z,5.70
2023-02-04T13:10:27.483Z,5.60
2023-02-04T13:12:56.731Z,5.60
2023-02-04T13:15:24.562Z,5.50
2023-02-04T13:17:52.484Z,5.50
2023-02-04T13:20:20.544Z,5.50
2023-02-04T13:22:48.437Z,5.50
2023-02-04T13:25:16.607Z,5.50
2023-02-04T13:27:44.534Z,5.60
2023-02-04T13:30:16.260Z,5.50
2023-02-04T13:32:44.435Z,5.50
2023-02-04T13:35:12.684Z,5.60
2023-02-04T13:37:40.576Z,5.70
2023-02-04T13:40:09.449Z,5.80
2023-02-04T13:42:37.350Z,5.80
2023-02-04T13:45:07.579Z,5.90
2023-02-04T13:47:36.788Z,5.90
2023-02-04T13:50:04.938Z,5.90
2023-02-04T13:52:33.457Z,5.90
2023-02-04T13:55:01.421Z,5.80
2023-02-04T13:57:30.864Z,5.80
2023-02-04T13:59:58.747Z,5.80
2023-02-04T14:02:26.686Z,6.10
2023-02-04T14:04:57.613Z,6.70
2023-02-04T14:07:25.506Z,7.40
2023-02-04T14:09:53.415Z,7.60
2023-02-04T14:12:21.269Z,7.50
2023-02-04T14:14:49.157Z,7.30
2023-02-04T14:17:17.223Z,7.00
2023-02-04T14:19:45.079Z,6.70
2023-02-04T14:22:14.309Z,6.50
2023-02-04T14:24:42.480Z,6.40
2023-02-04T14:27:11.540Z,6.20
2023-02-04T14:29:39.452Z,6.20
2023-02-04T14:32:08.568Z,6.10
2023-02-04T14:34:36.453Z,6.00
2023-02-04T14:37:04.380Z,6.00
2023-02-04T14:39:33.587Z,6.00
2023-02-04T14:42:04.360Z,6.00
2023-02-04T14:44:32.941Z,6.00
2023-02-04T14:47:00.799Z,6.00
2023-02-04T14:49:28.660Z,6.00
2023-02-04T14:51:56.816Z,6.00
2023-02-04T14:54:24.774Z,5.90
2023-02-04T14:56:54.478Z,5.90
2023-02-04T14:59:22.374Z,5.80
2023-02-04T15:01:50.283Z,5.70
2023-02-04T15:04:19.031Z,5.60
2023-02-04T15:06:46.984Z,5.50
2023-02-04T15:09:14.910Z,5.50
2023-02-04T15:11:42.782Z,5.90
2023-02-04T15:14:12.091Z,5.40
2023-02-04T15:16:41.873Z,5.40
2023-02-04T15:19:09.875Z,5.40
2023-02-04T15:21:37.842Z,5.40
2023-02-04T15:24:05.821Z,5.50
2023-02-04T15:26:33.944Z,5.60
2023-02-04T15:29:01.860Z,5.60
2023-02-04T15:31:31.326Z,5.50
2023-02-04T15:33:59.667Z,5.50
2023-02-04T15:36:27.543Z,5.40
2023-02-04T15:38:55.430Z,5.20
2023-02-04T15:41:23.767Z,5.10
2023-02-04T15:43:51.619Z,5.00
2023-02-04T15:46:19.526Z,4.90
2023-02-04T15:48:49.316Z,4.80
2023-02-04T15:51:17.282Z,4.70
2023-02-04T15:53:45.163Z,4.60
2023-02-04T15:56:13.050Z,4.50
2023-02-04T15:58:40.973Z,4.50
2023-02-04T16:01:08.916Z,4.40
2023-02-04T16:03:36.858Z,4.40
2023-02-04T16:06:06.482Z,4.40
2023-02-04T16:08:34.375Z,4.40
2023-02-04T16:11:02.273Z,4.40
2023-02-04T16:13:30.163Z,4.30
2023-02-04T16:15:58.088Z,4.30
2023-02-04T16:18:26.327Z,4.30
2023-02-04T16:20:54.228Z,4.30
2023-02-04T16:23:23.458Z,4.30
2023-02-04T16:25:51.944Z,4.20
2023-02-04T16:28:19.837Z,4.10
2023-02-04T16:30:47.952Z,4.10
2023-02-04T16:33:15.938Z,4.10
2023-02-04T16:36:01.593Z,4.00
2023-02-04T16:38:31.479Z,3.90
2023-02-04T16:40:59.381Z,3.90
2023-02-04T16:43:27.454Z,3.80
2023-02-04T16:45:55.892Z,3.80
2023-02-04T16:48:23.782Z,3.70
2023-02-04T16:50:51.671Z,3.70
2023-02-04T16:53:19.539Z,3.60
2023-02-04T16:55:49.081Z,3.60
2023-02-04T16:58:17.085Z,3.50
2023-02-04T17:00:45.011Z,3.40
2023-02-04T17:03:13.632Z,3.40
2023-02-04T17:05:42.728Z,3.40
2023-02-04T17:08:13.134Z,3.30
2023-02-04T17:10:59.317Z,3.20
2023-02-04T17:13:28.711Z,3.20
2023-02-04T17:16:00.513Z,3.20
2023-02-04T17:18:29.820Z,3.20
2023-02-04T17:20:58.382Z,3.20
2023-02-04T17:23:26.784Z,3.20
2023-02-04T17:25:54.862Z,3.20
2023-02-04T17:28:24.135Z,3.20
2023-02-04T17:30:53.526Z,3.10
2023-02-04T17:33:21.468Z,3.00
2023-02-04T17:35:49.611Z,2.90
2023-02-04T17:38:17.512Z,2.80
2023-02-04T17:40:46.440Z,2.70
2023-02-04T17:43:14.355Z,2.60
2023-02-04T17:45:42.271Z,2.50
2023-02-04T17:48:11.498Z,2.40
2023-02-04T17:50:40.187Z,2.30
2023-02-04T17:53:09.619Z,2.30
2023-02-04T17:55:39.651Z,2.20
2023-02-04T17:58:14.880Z,2.20
2023-02-04T18:00:44.720Z,2.20
2023-02-04T18:03:15.435Z,2.20
2023-02-04T18:05:46.381Z,2.10
2023-02-04T18:08:16.788Z,2.00
2023-02-04T18:10:46.392Z,2.00
2023-02-04T18:13:17.132Z,1.90
2023-02-04T18:15:47.158Z,1.80
2023-02-04T18:18:25.406Z,1.80
2023-02-04T18:21:00.760Z,1.80
2023-02-04T18:23:30.229Z,1.70
2023-02-04T18:26:02.371Z,1.70
2023-02-04T18:28:30.237Z,1.60
2023-02-04T18:31:01.119Z,1.50
2023-02-04T18:33:34.499Z,1.50
2023-02-04T18:36:03.027Z,1.50
2023-02-04T18:38:37.080Z,1.60
2023-02-04T18:41:25.444Z,1.60
2023-02-04T18:44:02.206Z,1.50
2023-02-04T18:46:33.721Z,1.30
2023-02-04T18:49:08.618Z,1.20
2023-02-04T18:51:40.203Z,1.20
2023-02-04T18:54:36.223Z,1.10
2023-02-04T18:57:36.443Z,1.10
2023-02-04T19:00:23.342Z,1.00
2023-02-04T19:02:54.863Z,0.90
2023-02-04T19:05:29.979Z,0.90
2023-02-04T19:08:15.730Z,0.80
2023-02-04T19:10:43.724Z,0.80
2023-02-04T19:13:19.074Z,0.70
2023-02-04T19:15:55.914Z,0.70
2023-02-04T19:18:27.060Z,0.70
2023-02-04T19:20:56.842Z,0.70
2023-02-04T19:23:25.468Z,0.60
2023-02-04T19:25:54.113Z,0.70
2023-02-04T19:28:30.639Z,0.70
2023-02-04T19:31:03.049Z,0.90
2023-02-04T19:33:36.686Z,0.60
2023-02-04T19:36:28.325Z,0.50
2023-02-04T19:38:59.896Z,0.50
2023-02-04T19:41:30.611Z,0.60
2023-02-04T19:44:20.560Z,0.60
2023-02-04T19:46:48.429Z,0.70
2023-02-04T19:49:29.453Z,0.70
2023-02-04T19:51:59.857Z,0.60
2023-02-04T19:54:38.436Z,0.60
2023-02-04T19:57:19.111Z,0.40
2023-02-04T19:59:46.952Z,0.30
2023-02-04T20:02:27.799Z,0.20
2023-02-04T20:04:55.984Z,0.20
2023-02-04T20:07:27.130Z,0.10
2023-02-04T20:10:00.038Z,0.10
2023-02-04T20:12:30.396Z,0.10
2023-02-04T20:14:58.838Z,0.00
2023-02-04T20:17:37.127Z,0.00
2023-02-04T20:20:19.034Z,0.00
2023-02-04T20:22:53.568Z,-0.10
2023-02-04T20:25:46.880Z,-0.20
2023-02-04T20:28:21.113Z,-0.20
2023-02-04T20:30:52.869Z,-0.40
2023-02-04T20:33:35.965Z,-0.40
2023-02-04T20:36:38.236Z,-0.50
2023-02-04T20:39:40.673Z,-0.40
2023-02-04T20:42:32.334Z,-0.50
2023-02-04T20:45:18.079Z,-0.60
2023-02-04T20:47:45.994Z,-0.70
2023-02-04T20:50:37.933Z,-0.70
2023-02-04T20:53:36.884Z,-0.80
2023-02-04T20:56:25.595Z,-0.90
2023-02-04T20:58:56.922Z,-0.90
2023-02-04T21:01:30.403Z,-0.90
2023-02-04T21:03:59.262Z,-0.90
2023-02-04T21:06:29.848Z,-0.90
2023-02-04T21:08:59.539Z,-0.90
2023-02-04T21:11:28.804Z,-0.90
2023-02-04T21:13:56.769Z,-1.00
2023-02-04T21:16:24.687Z,-1.00
2023-02-04T21:18:54.090Z,-1.00
2023-02-04T21:21:24.350Z,-0.90
2023-02-04T21:23:52.255Z,-0.80
2023-02-04T21:26:20.158Z,-0.80
2023-02-04T21:28:49.348Z,-0.70
2023-02-04T21:31:17.321Z,-0.70
2023-02-04T21:33:45.265Z,-0.60
2023-02-04T21:36:13.261Z,-0.50
2023-02-04T21:38:41.175Z,-0.40
2023-02-04T21:41:09.034Z,-0.40
2023-02-04T21:43:36.941Z,-0.40
2023-02-04T21:46:06.529Z,-0.30
2023-02-04T21:48:34.439Z,-0.40
2023-02-04T21:51:02.304Z,-0.40
2023-02-04T21:53:30.165Z,-0.60
2023-02-04T21:55:59.438Z,-0.80
2023-02-04T21:58:27.461Z,-1.00
2023-02-04T22:00:55.361Z,-1.10
2023-02-04T22:03:24.640Z,-1.20
2023-02-04T22:05:52.495Z,-1.40
2023-02-04T22:08:20.391Z,-1.50
2023-02-04T22:10:48.295Z,-1.60
2023-02-04T22:13:16.331Z,-1.70
2023-02-04T22:15:44.231Z,-1.80
2023-02-04T22:18:12.146Z,-1.90
2023-02-04T22:20:41.351Z,-2.00
2023-02-04T22:23:09.323Z,-2.10
2023-02-04T22:25:37.244Z,-2.10
2023-02-04T22:28:05.215Z,-2.20
2023-02-04T22:30:33.067Z,-2.20
2023-02-04T22:33:02.290Z,-2.30
2023-02-04T22:35:34.904Z,-2.30
2023-02-04T22:38:04.464Z,-2.20
2023-02-04T22:40:32.482Z,-2.10
2023-02-04T22:43:00.375Z,-1.90
2023-02-04T22:45:28.230Z,-1.80
2023-02-04T22:47:56.157Z,-1.70
2023-02-04T22:50:24.008Z,-1.70
2023-02-04T22:52:51.884Z,-1.70
2023-02-04T22:55:21.129Z,-1.70
2023-02-04T22:57:48.995Z,-1.50
2023-02-04T23:00:17.677Z,-1.30
2023-02-04T23:02:45.507Z,-1.20
2023-02-04T23:05:13.367Z,-1.00
2023-02-04T23:07:41.278Z,-0.90
2023-02-04T23:10:09.632Z,-1.00
2023-02-04T23:12:38.871Z,-1.10
2023-02-04T23:15:07.321Z,-1.10
2023-02-04T23:17:35.656Z,-1.10
2023-02-04T23:20:03.578Z,-1.10
2023-02-04T23:22:31.469Z,-1.00
2023-02-04T23:24:59.391Z,-1.00
2023-02-04T23:27:27.306Z,-1.00
2023-02-04T23:29:56.522Z,-1.00
2023-02-04T23:32:26.955Z,-1.10
2023-02-04T23:34:54.798Z,-1.10
2023-02-04T23:37:22.739Z,-1.20
2023-02-04T23:39:50.626Z,-1.20
2023-02-04T23:42:18.466Z,-1.20
2023-02-04T23:44:46.335Z,-1.20
2023-02-04T23:47:15.511Z,-1.30
2023-02-04T23:49:43.391Z,-1.30
2023-02-04T23:52:11.259Z,-1.30
2023-02-04T23:54:39.920Z,-1.30
2023-02-04T23:57:07.981Z,-1.20
2023-02-04T23:59:36.227Z,-1.30
